Forside
METAR-TAF:

METAR-TAF

Lufthavne :

Shawano, Wisconsin, USA

Breddekreds: 44-47-14N, længdekreds: 088-33-36W, højde: 248 m

Aktuelle vejr

Denne rapport blev lavet for 9 minutter siden, kl. 10:35 UTC
Vind 5 kt fra nordnordvest med vindstød på up til 16 kt
Temperatur 6°C
Fugtighed 93%
Tryk 1014 hPa
Sigt: 16.1 km
Overskyet i en højde af 1700 ft

METAR: KEZS 231035Z AUTO 34005G16KT 10SM OVC017 06/05 A2995 RMK AO2 T00640045

Tid: 05:44 (10:44 UTC)


TAF: fraværende

Vejrobservationer og prognoser fra mere end 4000 lufthavne (METAR og TAF).

De gule og røde prikker repræsenterer de meteorologiske stationer.

Flyt musen over at se navnet på stationen.

Så klik over at se vejr observationer og prognoser.

At skifte det kort: Klik på de grønne knapper med et sort kors for at zoome ind; på den grønne knap med en bindestreg for at zoome ud; eller på de grønne pile for tilstødende kort.


METAR-TAF: